sensor_id;sensor_type;location;lat;lon;timestamp;P1;durP1;ratioP1;P2;durP2;ratioP2
10174;SDS011;18221;38.704;0.152;2024-01-30T00:00:57;14.13;;;7.60;;
10174;SDS011;18221;38.704;0.152;2024-01-30T00:03:27;15.37;;;7.67;;
10174;SDS011;18221;38.704;0.152;2024-01-30T00:05:55;11.20;;;6.90;;
10174;SDS011;18221;38.704;0.152;2024-01-30T00:08:23;15.83;;;7.87;;
10174;SDS011;18221;38.704;0.152;2024-01-30T00:10:50;16.10;;;7.87;;
10174;SDS011;18221;38.704;0.152;2024-01-30T00:13:18;12.07;;;7.23;;
10174;SDS011;18221;38.704;0.152;2024-01-30T00:15:46;14.00;;;7.90;;
10174;SDS011;18221;38.704;0.152;2024-01-30T00:18:15;13.87;;;7.67;;
10174;SDS011;18221;38.704;0.152;2024-01-30T00:20:45;15.50;;;8.60;;
10174;SDS011;18221;38.704;0.152;2024-01-30T00:23:13;15.47;;;7.20;;
10174;SDS011;18221;38.704;0.152;2024-01-30T00:25:41;12.77;;;7.30;;
10174;SDS011;18221;38.704;0.152;2024-01-30T00:28:11;11.00;;;7.50;;
10174;SDS011;18221;38.704;0.152;2024-01-30T00:30:40;12.67;;;7.63;;
10174;SDS011;18221;38.704;0.152;2024-01-30T00:33:08;15.77;;;7.17;;
10174;SDS011;18221;38.704;0.152;2024-01-30T00:35:36;11.83;;;7.63;;
10174;SDS011;18221;38.704;0.152;2024-01-30T00:38:05;14.10;;;8.03;;
10174;SDS011;18221;38.704;0.152;2024-01-30T00:40:33;12.40;;;7.77;;
10174;SDS011;18221;38.704;0.152;2024-01-30T00:43:01;13.20;;;7.67;;
10174;SDS011;18221;38.704;0.152;2024-01-30T00:45:29;12.03;;;7.33;;
10174;SDS011;18221;38.704;0.152;2024-01-30T00:47:57;17.33;;;8.43;;
10174;SDS011;18221;38.704;0.152;2024-01-30T01:03:24;13.83;;;7.03;;
10174;SDS011;18221;38.704;0.152;2024-01-30T01:05:52;12.53;;;7.40;;
10174;SDS011;18221;38.704;0.152;2024-01-30T01:08:20;12.07;;;7.07;;
10174;SDS011;18221;38.704;0.152;2024-01-30T01:10:48;12.93;;;6.87;;
10174;SDS011;18221;38.704;0.152;2024-01-30T01:13:16;11.97;;;6.90;;
10174;SDS011;18221;38.704;0.152;2024-01-30T01:15:44;12.87;;;6.90;;
10174;SDS011;18221;38.704;0.152;2024-01-30T01:18:12;14.33;;;7.37;;
10174;SDS011;18221;38.704;0.152;2024-01-30T01:20:41;19.50;;;7.20;;
10174;SDS011;18221;38.704;0.152;2024-01-30T01:23:09;12.40;;;7.63;;
10174;SDS011;18221;38.704;0.152;2024-01-30T01:25:37;13.37;;;7.10;;
10174;SDS011;18221;38.704;0.152;2024-01-30T01:28:05;13.93;;;8.30;;
10174;SDS011;18221;38.704;0.152;2024-01-30T01:30:33;14.67;;;7.60;;
10174;SDS011;18221;38.704;0.152;2024-01-30T01:33:01;10.80;;;7.67;;
10174;SDS011;18221;38.704;0.152;2024-01-30T01:35:29;15.23;;;7.90;;
10174;SDS011;18221;38.704;0.152;2024-01-30T01:37:58;15.07;;;7.20;;
10174;SDS011;18221;38.704;0.152;2024-01-30T01:40:26;17.67;;;8.20;;
10174;SDS011;18221;38.704;0.152;2024-01-30T01:42:55;14.10;;;7.47;;
10174;SDS011;18221;38.704;0.152;2024-01-30T01:45:23;13.50;;;7.67;;
10174;SDS011;18221;38.704;0.152;2024-01-30T01:47:51;16.43;;;7.67;;
10174;SDS011;18221;38.704;0.152;2024-01-30T01:50:19;13.87;;;8.13;;
10174;SDS011;18221;38.704;0.152;2024-01-30T01:52:48;12.40;;;8.07;;
10174;SDS011;18221;38.704;0.152;2024-01-30T01:55:19;16.20;;;9.00;;
10174;SDS011;18221;38.704;0.152;2024-01-30T01:57:50;14.87;;;8.67;;
10174;SDS011;18221;38.704;0.152;2024-01-30T02:00:18;17.37;;;9.80;;
10174;SDS011;18221;38.704;0.152;2024-01-30T02:02:47;13.53;;;8.87;;
10174;SDS011;18221;38.704;0.152;2024-01-30T02:05:16;13.40;;;8.50;;
10174;SDS011;18221;38.704;0.152;2024-01-30T02:07:45;13.50;;;8.93;;
10174;SDS011;18221;38.704;0.152;2024-01-30T02:10:14;16.77;;;8.90;;
10174;SDS011;18221;38.704;0.152;2024-01-30T02:12:43;17.00;;;9.60;;
10174;SDS011;18221;38.704;0.152;2024-01-30T02:15:13;17.23;;;9.50;;
10174;SDS011;18221;38.704;0.152;2024-01-30T02:17:41;14.93;;;9.10;;
10174;SDS011;18221;38.704;0.152;2024-01-30T02:20:09;15.90;;;9.33;;
10174;SDS011;18221;38.704;0.152;2024-01-30T02:22:40;16.13;;;9.37;;
10174;SDS011;18221;38.704;0.152;2024-01-30T02:25:09;20.23;;;8.80;;
10174;SDS011;18221;38.704;0.152;2024-01-30T02:27:37;14.13;;;8.63;;
10174;SDS011;18221;38.704;0.152;2024-01-30T02:30:05;18.40;;;8.93;;
10174;SDS011;18221;38.704;0.152;2024-01-30T02:32:34;15.00;;;8.80;;
10174;SDS011;18221;38.704;0.152;2024-01-30T02:35:02;15.20;;;8.53;;
10174;SDS011;18221;38.704;0.152;2024-01-30T02:37:31;13.97;;;8.83;;
10174;SDS011;18221;38.704;0.152;2024-01-30T02:40:00;17.03;;;9.10;;
10174;SDS011;18221;38.704;0.152;2024-01-30T02:42:29;11.83;;;8.60;;
10174;SDS011;18221;38.704;0.152;2024-01-30T02:44:56;19.80;;;9.60;;
10174;SDS011;18221;38.704;0.152;2024-01-30T02:47:25;19.67;;;9.33;;
10174;SDS011;18221;38.704;0.152;2024-01-30T02:49:53;15.17;;;8.40;;
10174;SDS011;18221;38.704;0.152;2024-01-30T02:52:20;15.50;;;8.50;;
10174;SDS011;18221;38.704;0.152;2024-01-30T02:54:48;11.73;;;8.43;;
10174;SDS011;18221;38.704;0.152;2024-01-30T02:57:18;12.10;;;7.80;;
10174;SDS011;18221;38.704;0.152;2024-01-30T02:59:45;16.60;;;9.10;;
10174;SDS011;18221;38.704;0.152;2024-01-30T03:02:13;19.30;;;9.13;;
10174;SDS011;18221;38.704;0.152;2024-01-30T03:04:41;20.17;;;9.03;;
10174;SDS011;18221;38.704;0.152;2024-01-30T03:07:09;15.13;;;9.30;;
10174;SDS011;18221;38.704;0.152;2024-01-30T03:09:37;15.17;;;9.43;;
10174;SDS011;18221;38.704;0.152;2024-01-30T03:12:05;17.53;;;9.93;;
10174;SDS011;18221;38.704;0.152;2024-01-30T03:14:35;14.37;;;9.60;;
10174;SDS011;18221;38.704;0.152;2024-01-30T03:17:03;19.00;;;10.17;;
10174;SDS011;18221;38.704;0.152;2024-01-30T03:19:31;17.83;;;9.53;;
10174;SDS011;18221;38.704;0.152;2024-01-30T03:21:59;15.70;;;9.20;;
10174;SDS011;18221;38.704;0.152;2024-01-30T03:24:26;15.60;;;9.00;;
10174;SDS011;18221;38.704;0.152;2024-01-30T03:26:54;18.17;;;9.93;;
10174;SDS011;18221;38.704;0.152;2024-01-30T03:29:22;18.20;;;9.43;;
10174;SDS011;18221;38.704;0.152;2024-01-30T03:31:52;16.63;;;8.50;;
10174;SDS011;18221;38.704;0.152;2024-01-30T03:34:19;15.70;;;9.13;;
10174;SDS011;18221;38.704;0.152;2024-01-30T03:36:47;12.27;;;9.37;;
10174;SDS011;18221;38.704;0.152;2024-01-30T03:39:15;12.90;;;8.70;;
10174;SDS011;18221;38.704;0.152;2024-01-30T03:41:43;18.03;;;9.87;;
10174;SDS011;18221;38.704;0.152;2024-01-30T03:44:11;17.07;;;9.20;;
10174;SDS011;18221;38.704;0.152;2024-01-30T03:46:39;16.77;;;9.50;;
10174;SDS011;18221;38.704;0.152;2024-01-30T03:49:09;16.03;;;9.50;;
10174;SDS011;18221;38.704;0.152;2024-01-30T03:51:37;17.80;;;9.83;;
10174;SDS011;18221;38.704;0.152;2024-01-30T03:54:04;16.13;;;9.63;;
10174;SDS011;18221;38.704;0.152;2024-01-30T03:56:33;15.10;;;9.90;;
10174;SDS011;18221;38.704;0.152;2024-01-30T03:59:02;20.20;;;10.33;;
10174;SDS011;18221;38.704;0.152;2024-01-30T04:01:32;15.70;;;10.17;;
10174;SDS011;18221;38.704;0.152;2024-01-30T04:04:00;15.50;;;10.67;;
10174;SDS011;18221;38.704;0.152;2024-01-30T04:06:29;14.13;;;10.63;;
10174;SDS011;18221;38.704;0.152;2024-01-30T04:08:57;19.77;;;11.37;;
10174;SDS011;18221;38.704;0.152;2024-01-30T04:11:25;19.03;;;11.30;;
10174;SDS011;18221;38.704;0.152;2024-01-30T04:13:53;15.90;;;11.37;;
10174;SDS011;18221;38.704;0.152;2024-01-30T04:16:21;16.83;;;10.90;;
10174;SDS011;18221;38.704;0.152;2024-01-30T04:18:49;22.13;;;11.60;;
10174;SDS011;18221;38.704;0.152;2024-01-30T04:21:18;18.57;;;11.10;;
10174;SDS011;18221;38.704;0.152;2024-01-30T04:23:50;19.03;;;11.17;;
10174;SDS011;18221;38.704;0.152;2024-01-30T04:26:18;18.03;;;11.20;;
10174;SDS011;18221;38.704;0.152;2024-01-30T04:28:46;21.73;;;12.37;;
10174;SDS011;18221;38.704;0.152;2024-01-30T04:31:14;18.77;;;12.33;;
10174;SDS011;18221;38.704;0.152;2024-01-30T04:33:42;25.33;;;13.27;;
10174;SDS011;18221;38.704;0.152;2024-01-30T04:36:09;25.13;;;13.57;;
10174;SDS011;18221;38.704;0.152;2024-01-30T04:38:37;22.70;;;12.67;;
10174;SDS011;18221;38.704;0.152;2024-01-30T04:41:07;20.30;;;13.20;;
10174;SDS011;18221;38.704;0.152;2024-01-30T04:43:35;20.83;;;13.40;;
10174;SDS011;18221;38.704;0.152;2024-01-30T04:46:04;24.33;;;13.20;;
10174;SDS011;18221;38.704;0.152;2024-01-30T04:48:32;21.50;;;13.37;;
10174;SDS011;18221;38.704;0.152;2024-01-30T04:51:00;21.57;;;13.87;;
10174;SDS011;18221;38.704;0.152;2024-01-30T04:53:29;23.00;;;15.03;;
10174;SDS011;18221;38.704;0.152;2024-01-30T04:55:58;26.63;;;14.83;;
10174;SDS011;18221;38.704;0.152;2024-01-30T04:58:27;22.03;;;15.30;;
10174;SDS011;18221;38.704;0.152;2024-01-30T05:00:55;21.67;;;15.10;;
10174;SDS011;18221;38.704;0.152;2024-01-30T05:03:22;27.83;;;15.87;;
10174;SDS011;18221;38.704;0.152;2024-01-30T05:05:50;24.47;;;15.30;;
10174;SDS011;18221;38.704;0.152;2024-01-30T05:08:18;25.87;;;15.63;;
10174;SDS011;18221;38.704;0.152;2024-01-30T05:10:46;25.00;;;15.00;;
10174;SDS011;18221;38.704;0.152;2024-01-30T05:13:14;23.80;;;14.83;;
10174;SDS011;18221;38.704;0.152;2024-01-30T05:15:43;24.93;;;15.73;;
10174;SDS011;18221;38.704;0.152;2024-01-30T05:18:11;26.90;;;15.50;;
10174;SDS011;18221;38.704;0.152;2024-01-30T05:20:39;21.27;;;14.97;;
10174;SDS011;18221;38.704;0.152;2024-01-30T05:23:07;25.90;;;15.80;;
10174;SDS011;18221;38.704;0.152;2024-01-30T05:25:35;28.50;;;15.03;;
10174;SDS011;18221;38.704;0.152;2024-01-30T05:28:03;24.13;;;15.33;;
10174;SDS011;18221;38.704;0.152;2024-01-30T05:30:31;23.37;;;14.90;;
10174;SDS011;18221;38.704;0.152;2024-01-30T05:33:01;27.57;;;14.93;;
10174;SDS011;18221;38.704;0.152;2024-01-30T05:35:29;25.30;;;15.83;;
10174;SDS011;18221;38.704;0.152;2024-01-30T05:37:56;24.20;;;16.07;;
10174;SDS011;18221;38.704;0.152;2024-01-30T05:40:24;28.13;;;16.60;;
10174;SDS011;18221;38.704;0.152;2024-01-30T05:42:52;30.83;;;15.90;;
10174;SDS011;18221;38.704;0.152;2024-01-30T05:45:20;27.00;;;15.23;;
10174;SDS011;18221;38.704;0.152;2024-01-30T05:47:49;23.87;;;13.77;;
10174;SDS011;18221;38.704;0.152;2024-01-30T05:50:21;26.73;;;15.90;;
10174;SDS011;18221;38.704;0.152;2024-01-30T05:52:50;27.07;;;14.90;;
10174;SDS011;18221;38.704;0.152;2024-01-30T05:55:19;29.90;;;16.63;;
10174;SDS011;18221;38.704;0.152;2024-01-30T05:57:47;24.53;;;15.50;;
10174;SDS011;18221;38.704;0.152;2024-01-30T06:00:19;18.90;;;12.80;;
10174;SDS011;18221;38.704;0.152;2024-01-30T06:02:47;22.30;;;14.60;;
10174;SDS011;18221;38.704;0.152;2024-01-30T06:05:15;22.30;;;13.73;;
10174;SDS011;18221;38.704;0.152;2024-01-30T06:07:45;22.77;;;13.87;;
10174;SDS011;18221;38.704;0.152;2024-01-30T06:10:13;23.57;;;14.57;;
10174;SDS011;18221;38.704;0.152;2024-01-30T06:12:41;24.77;;;14.30;;
10174;SDS011;18221;38.704;0.152;2024-01-30T06:15:09;23.10;;;14.67;;
10174;SDS011;18221;38.704;0.152;2024-01-30T06:17:38;25.37;;;15.77;;
10174;SDS011;18221;38.704;0.152;2024-01-30T06:20:06;25.20;;;15.90;;
10174;SDS011;18221;38.704;0.152;2024-01-30T06:22:34;22.77;;;16.53;;
10174;SDS011;18221;38.704;0.152;2024-01-30T06:25:04;21.97;;;15.67;;
10174;SDS011;18221;38.704;0.152;2024-01-30T06:27:32;23.30;;;16.17;;
10174;SDS011;18221;38.704;0.152;2024-01-30T06:30:00;23.70;;;16.47;;
10174;SDS011;18221;38.704;0.152;2024-01-30T06:32:29;27.60;;;15.73;;
10174;SDS011;18221;38.704;0.152;2024-01-30T06:34:59;21.40;;;14.93;;
10174;SDS011;18221;38.704;0.152;2024-01-30T06:37:30;23.33;;;14.83;;
10174;SDS011;18221;38.704;0.152;2024-01-30T06:39:58;23.00;;;15.50;;
10174;SDS011;18221;38.704;0.152;2024-01-30T06:42:27;21.10;;;14.60;;
10174;SDS011;18221;38.704;0.152;2024-01-30T06:44:55;21.80;;;14.90;;
10174;SDS011;18221;38.704;0.152;2024-01-30T06:47:23;24.53;;;15.00;;
10174;SDS011;18221;38.704;0.152;2024-01-30T06:49:51;24.67;;;15.37;;
10174;SDS011;18221;38.704;0.152;2024-01-30T06:52:19;22.03;;;16.53;;
10174;SDS011;18221;38.704;0.152;2024-01-30T06:54:47;22.47;;;14.67;;
10174;SDS011;18221;38.704;0.152;2024-01-30T06:57:15;21.87;;;14.20;;
10174;SDS011;18221;38.704;0.152;2024-01-30T06:59:45;20.27;;;13.60;;
10174;SDS011;18221;38.704;0.152;2024-01-30T07:02:13;20.67;;;13.60;;
10174;SDS011;18221;38.704;0.152;2024-01-30T07:04:41;23.03;;;14.43;;
10174;SDS011;18221;38.704;0.152;2024-01-30T07:07:09;22.13;;;14.50;;
10174;SDS011;18221;38.704;0.152;2024-01-30T07:09:38;23.13;;;14.80;;
10174;SDS011;18221;38.704;0.152;2024-01-30T07:12:07;28.43;;;15.30;;
10174;SDS011;18221;38.704;0.152;2024-01-30T07:14:35;23.77;;;14.77;;
10174;SDS011;18221;38.704;0.152;2024-01-30T07:17:04;21.53;;;14.30;;
10174;SDS011;18221;38.704;0.152;2024-01-30T07:19:32;29.93;;;15.63;;
10174;SDS011;18221;38.704;0.152;2024-01-30T07:22:00;24.57;;;15.40;;
10174;SDS011;18221;38.704;0.152;2024-01-30T07:24:28;23.60;;;14.83;;
10174;SDS011;18221;38.704;0.152;2024-01-30T07:26:56;23.87;;;15.03;;
10174;SDS011;18221;38.704;0.152;2024-01-30T07:29:24;23.03;;;14.83;;
10174;SDS011;18221;38.704;0.152;2024-01-30T07:31:53;21.00;;;14.93;;
10174;SDS011;18221;38.704;0.152;2024-01-30T07:34:22;24.20;;;14.50;;
10174;SDS011;18221;38.704;0.152;2024-01-30T07:36:50;22.47;;;14.07;;
10174;SDS011;18221;38.704;0.152;2024-01-30T07:39:18;25.37;;;13.30;;
10174;SDS011;18221;38.704;0.152;2024-01-30T07:41:46;23.23;;;13.07;;
10174;SDS011;18221;38.704;0.152;2024-01-30T07:44:14;18.10;;;12.63;;
10174;SDS011;18221;38.704;0.152;2024-01-30T07:46:42;15.17;;;12.93;;
10174;SDS011;18221;38.704;0.152;2024-01-30T07:49:10;25.20;;;14.30;;
10174;SDS011;18221;38.704;0.152;2024-01-30T07:51:40;21.30;;;15.23;;
10174;SDS011;18221;38.704;0.152;2024-01-30T07:54:16;21.27;;;14.53;;
10174;SDS011;18221;38.704;0.152;2024-01-30T07:56:44;22.07;;;13.30;;
10174;SDS011;18221;38.704;0.152;2024-01-30T07:59:12;23.77;;;12.90;;
10174;SDS011;18221;38.704;0.152;2024-01-30T08:01:40;19.70;;;11.53;;
10174;SDS011;18221;38.704;0.152;2024-01-30T08:04:08;19.53;;;11.27;;
10174;SDS011;18221;38.704;0.152;2024-01-30T08:06:36;18.77;;;9.73;;
10174;SDS011;18221;38.704;0.152;2024-01-30T08:09:05;18.53;;;9.83;;
10174;SDS011;18221;38.704;0.152;2024-01-30T08:11:34;15.87;;;9.70;;
10174;SDS011;18221;38.704;0.152;2024-01-30T08:14:02;16.43;;;9.70;;
10174;SDS011;18221;38.704;0.152;2024-01-30T08:16:30;15.70;;;9.37;;
10174;SDS011;18221;38.704;0.152;2024-01-30T08:18:58;15.00;;;8.43;;
10174;SDS011;18221;38.704;0.152;2024-01-30T08:21:26;15.57;;;8.63;;
10174;SDS011;18221;38.704;0.152;2024-01-30T08:23:54;16.27;;;8.87;;
10174;SDS011;18221;38.704;0.152;2024-01-30T08:26:24;17.67;;;7.53;;
10174;SDS011;18221;38.704;0.152;2024-01-30T08:28:51;13.17;;;7.47;;
10174;SDS011;18221;38.704;0.152;2024-01-30T08:31:20;14.40;;;7.23;;
10174;SDS011;18221;38.704;0.152;2024-01-30T08:33:48;16.73;;;7.57;;
10174;SDS011;18221;38.704;0.152;2024-01-30T08:36:16;14.27;;;7.10;;
10174;SDS011;18221;38.704;0.152;2024-01-30T08:38:44;14.77;;;7.30;;
10174;SDS011;18221;38.704;0.152;2024-01-30T08:41:12;14.70;;;7.10;;
10174;SDS011;18221;38.704;0.152;2024-01-30T08:43:42;15.73;;;7.10;;
10174;SDS011;18221;38.704;0.152;2024-01-30T08:46:11;14.23;;;6.00;;
10174;SDS011;18221;38.704;0.152;2024-01-30T08:48:40;12.67;;;5.93;;
10174;SDS011;18221;38.704;0.152;2024-01-30T08:51:09;13.63;;;5.87;;
10174;SDS011;18221;38.704;0.152;2024-01-30T08:53:37;13.97;;;5.93;;
10174;SDS011;18221;38.704;0.152;2024-01-30T08:56:06;15.73;;;6.80;;
10174;SDS011;18221;38.704;0.152;2024-01-30T08:58:34;19.57;;;7.13;;
10174;SDS011;18221;38.704;0.152;2024-01-30T09:01:03;15.90;;;6.33;;
10174;SDS011;18221;38.704;0.152;2024-01-30T09:03:32;13.73;;;6.87;;
10174;SDS011;18221;38.704;0.152;2024-01-30T09:06:01;16.47;;;7.87;;
10174;SDS011;18221;38.704;0.152;2024-01-30T09:08:30;17.77;;;7.20;;
10174;SDS011;18221;38.704;0.152;2024-01-30T09:10:58;16.90;;;6.90;;
10174;SDS011;18221;38.704;0.152;2024-01-30T09:13:26;13.53;;;6.43;;
10174;SDS011;18221;38.704;0.152;2024-01-30T09:15:54;13.07;;;5.70;;
10174;SDS011;18221;38.704;0.152;2024-01-30T09:18:23;9.00;;;6.00;;
10174;SDS011;18221;38.704;0.152;2024-01-30T09:20:51;11.63;;;6.07;;
10174;SDS011;18221;38.704;0.152;2024-01-30T09:23:19;13.43;;;6.10;;
10174;SDS011;18221;38.704;0.152;2024-01-30T09:25:47;13.40;;;5.73;;
10174;SDS011;18221;38.704;0.152;2024-01-30T09:28:16;13.37;;;6.17;;
10174;SDS011;18221;38.704;0.152;2024-01-30T09:30:44;14.00;;;6.40;;
10174;SDS011;18221;38.704;0.152;2024-01-30T09:33:15;16.00;;;5.90;;
10174;SDS011;18221;38.704;0.152;2024-01-30T09:35:45;15.60;;;6.77;;
10174;SDS011;18221;38.704;0.152;2024-01-30T09:38:13;26.00;;;7.50;;
10174;SDS011;18221;38.704;0.152;2024-01-30T09:40:41;13.90;;;6.50;;
10174;SDS011;18221;38.704;0.152;2024-01-30T09:43:09;15.67;;;7.17;;
10174;SDS011;18221;38.704;0.152;2024-01-30T09:45:47;16.30;;;6.67;;
10174;SDS011;18221;38.704;0.152;2024-01-30T09:48:17;16.53;;;6.83;;
10174;SDS011;18221;38.704;0.152;2024-01-30T09:50:47;13.90;;;5.97;;
10174;SDS011;18221;38.704;0.152;2024-01-30T09:53:15;13.67;;;5.13;;
10174;SDS011;18221;38.704;0.152;2024-01-30T09:55:44;15.50;;;5.47;;
10174;SDS011;18221;38.704;0.152;2024-01-30T09:58:14;13.40;;;5.80;;
10174;SDS011;18221;38.704;0.152;2024-01-30T10:00:42;21.73;;;5.17;;
10174;SDS011;18221;38.704;0.152;2024-01-30T10:03:10;16.53;;;4.80;;
10174;SDS011;18221;38.704;0.152;2024-01-30T10:05:40;20.57;;;4.97;;
10174;SDS011;18221;38.704;0.152;2024-01-30T10:08:12;20.60;;;5.20;;
10174;SDS011;18221;38.704;0.152;2024-01-30T10:10:45;18.17;;;4.40;;
10174;SDS011;18221;38.704;0.152;2024-01-30T10:13:15;13.37;;;5.27;;
10174;SDS011;18221;38.704;0.152;2024-01-30T10:15:43;12.73;;;4.60;;
10174;SDS011;18221;38.704;0.152;2024-01-30T10:18:12;15.50;;;4.20;;
10174;SDS011;18221;38.704;0.152;2024-01-30T10:20:40;12.47;;;4.37;;
10174;SDS011;18221;38.704;0.152;2024-01-30T10:23:07;17.17;;;4.37;;
10174;SDS011;18221;38.704;0.152;2024-01-30T10:25:38;14.63;;;4.07;;
10174;SDS011;18221;38.704;0.152;2024-01-30T10:28:06;12.90;;;5.27;;
10174;SDS011;18221;38.704;0.152;2024-01-30T10:30:35;14.00;;;4.30;;
10174;SDS011;18221;38.704;0.152;2024-01-30T10:33:03;16.17;;;3.43;;
10174;SDS011;18221;38.704;0.152;2024-01-30T10:35:31;14.07;;;3.53;;
10174;SDS011;18221;38.704;0.152;2024-01-30T10:38:00;16.33;;;4.20;;
10174;SDS011;18221;38.704;0.152;2024-01-30T10:40:28;15.20;;;3.90;;
10174;SDS011;18221;38.704;0.152;2024-01-30T10:42:59;16.97;;;3.70;;
10174;SDS011;18221;38.704;0.152;2024-01-30T10:45:32;9.03;;;3.67;;
10174;SDS011;18221;38.704;0.152;2024-01-30T10:48:02;15.33;;;3.70;;
10174;SDS011;18221;38.704;0.152;2024-01-30T10:50:36;13.57;;;3.67;;
10174;SDS011;18221;38.704;0.152;2024-01-30T10:53:07;13.97;;;3.67;;
10174;SDS011;18221;38.704;0.152;2024-01-30T10:55:36;19.33;;;3.40;;
10174;SDS011;18221;38.704;0.152;2024-01-30T10:58:07;16.83;;;4.00;;
10174;SDS011;18221;38.704;0.152;2024-01-30T11:00:37;15.67;;;4.23;;
10174;SDS011;18221;38.704;0.152;2024-01-30T11:03:05;10.60;;;3.10;;
10174;SDS011;18221;38.704;0.152;2024-01-30T11:05:34;15.73;;;3.50;;
10174;SDS011;18221;38.704;0.152;2024-01-30T11:08:10;15.10;;;3.40;;
10174;SDS011;18221;38.704;0.152;2024-01-30T11:10:46;11.90;;;3.50;;
10174;SDS011;18221;38.704;0.152;2024-01-30T11:13:16;14.97;;;3.37;;
10174;SDS011;18221;38.704;0.152;2024-01-30T11:15:47;15.67;;;3.77;;
10174;SDS011;18221;38.704;0.152;2024-01-30T11:18:22;12.30;;;3.33;;
10174;SDS011;18221;38.704;0.152;2024-01-30T11:20:51;12.07;;;3.47;;
10174;SDS011;18221;38.704;0.152;2024-01-30T11:23:22;9.33;;;3.27;;
10174;SDS011;18221;38.704;0.152;2024-01-30T11:25:52;16.27;;;3.40;;
10174;SDS011;18221;38.704;0.152;2024-01-30T11:28:22;18.57;;;4.10;;
10174;SDS011;18221;38.704;0.152;2024-01-30T11:30:50;11.57;;;3.33;;
10174;SDS011;18221;38.704;0.152;2024-01-30T11:33:29;15.47;;;3.87;;
10174;SDS011;18221;38.704;0.152;2024-01-30T11:35:58;13.43;;;3.97;;
10174;SDS011;18221;38.704;0.152;2024-01-30T11:38:27;18.00;;;3.83;;
10174;SDS011;18221;38.704;0.152;2024-01-30T11:40:56;12.47;;;3.87;;
10174;SDS011;18221;38.704;0.152;2024-01-30T11:43:25;14.17;;;4.07;;
10174;SDS011;18221;38.704;0.152;2024-01-30T11:45:53;12.17;;;3.60;;
10174;SDS011;18221;38.704;0.152;2024-01-30T11:48:21;14.47;;;3.87;;
10174;SDS011;18221;38.704;0.152;2024-01-30T11:50:49;15.07;;;3.03;;
10174;SDS011;18221;38.704;0.152;2024-01-30T11:53:17;16.33;;;3.93;;
10174;SDS011;18221;38.704;0.152;2024-01-30T11:55:49;13.63;;;3.40;;
10174;SDS011;18221;38.704;0.152;2024-01-30T11:58:18;10.87;;;3.30;;
10174;SDS011;18221;38.704;0.152;2024-01-30T12:00:54;16.93;;;3.60;;
10174;SDS011;18221;38.704;0.152;2024-01-30T12:03:22;12.10;;;3.70;;
10174;SDS011;18221;38.704;0.152;2024-01-30T12:05:55;11.27;;;3.30;;
10174;SDS011;18221;38.704;0.152;2024-01-30T12:08:24;16.20;;;3.50;;
10174;SDS011;18221;38.704;0.152;2024-01-30T12:10:56;15.67;;;4.03;;
10174;SDS011;18221;38.704;0.152;2024-01-30T12:13:26;13.63;;;3.27;;
10174;SDS011;18221;38.704;0.152;2024-01-30T12:15:57;10.20;;;3.97;;
10174;SDS011;18221;38.704;0.152;2024-01-30T12:18:25;13.83;;;3.30;;
10174;SDS011;18221;38.704;0.152;2024-01-30T12:20:56;12.77;;;3.30;;
10174;SDS011;18221;38.704;0.152;2024-01-30T12:23:25;15.50;;;3.83;;
10174;SDS011;18221;38.704;0.152;2024-01-30T12:25:54;13.03;;;3.60;;
10174;SDS011;18221;38.704;0.152;2024-01-30T12:28:24;14.60;;;3.60;;
10174;SDS011;18221;38.704;0.152;2024-01-30T12:30:55;15.30;;;3.33;;
10174;SDS011;18221;38.704;0.152;2024-01-30T12:33:28;18.73;;;4.73;;
10174;SDS011;18221;38.704;0.152;2024-01-30T12:35:57;11.60;;;3.50;;
10174;SDS011;18221;38.704;0.152;2024-01-30T12:38:28;11.23;;;3.00;;
10174;SDS011;18221;38.704;0.152;2024-01-30T12:40:56;15.37;;;3.23;;
10174;SDS011;18221;38.704;0.152;2024-01-30T12:43:25;15.97;;;3.27;;
10174;SDS011;18221;38.704;0.152;2024-01-30T12:45:53;15.70;;;3.57;;
10174;SDS011;18221;38.704;0.152;2024-01-30T12:48:23;14.40;;;3.67;;
10174;SDS011;18221;38.704;0.152;2024-01-30T12:50:51;13.43;;;3.43;;
10174;SDS011;18221;38.704;0.152;2024-01-30T12:53:19;13.37;;;3.27;;
10174;SDS011;18221;38.704;0.152;2024-01-30T12:55:46;12.33;;;3.30;;
10174;SDS011;18221;38.704;0.152;2024-01-30T12:58:15;11.17;;;2.80;;
10174;SDS011;18221;38.704;0.152;2024-01-30T13:00:43;16.30;;;3.73;;
10174;SDS011;18221;38.704;0.152;2024-01-30T13:03:11;13.97;;;3.47;;
10174;SDS011;18221;38.704;0.152;2024-01-30T13:05:40;12.63;;;3.27;;
10174;SDS011;18221;38.704;0.152;2024-01-30T13:08:09;13.33;;;3.53;;
10174;SDS011;18221;38.704;0.152;2024-01-30T13:10:37;14.00;;;3.80;;
10174;SDS011;18221;38.704;0.152;2024-01-30T13:13:05;17.67;;;3.87;;
10174;SDS011;18221;38.704;0.152;2024-01-30T13:15:34;19.00;;;3.93;;
10174;SDS011;18221;38.704;0.152;2024-01-30T13:18:02;12.20;;;3.33;;
10174;SDS011;18221;38.704;0.152;2024-01-30T13:20:31;17.50;;;3.73;;
10174;SDS011;18221;38.704;0.152;2024-01-30T13:23:00;14.63;;;3.23;;
10174;SDS011;18221;38.704;0.152;2024-01-30T13:25:28;17.60;;;4.33;;
10174;SDS011;18221;38.704;0.152;2024-01-30T13:27:56;18.27;;;3.80;;
10174;SDS011;18221;38.704;0.152;2024-01-30T13:30:24;24.07;;;4.13;;
10174;SDS011;18221;38.704;0.152;2024-01-30T13:32:53;18.57;;;4.33;;
10174;SDS011;18221;38.704;0.152;2024-01-30T13:35:20;9.87;;;3.30;;
10174;SDS011;18221;38.704;0.152;2024-01-30T13:37:51;10.93;;;3.50;;
10174;SDS011;18221;38.704;0.152;2024-01-30T13:40:20;11.47;;;3.40;;
10174;SDS011;18221;38.704;0.152;2024-01-30T13:42:48;18.40;;;3.50;;
10174;SDS011;18221;38.704;0.152;2024-01-30T13:45:16;14.50;;;3.83;;
10174;SDS011;18221;38.704;0.152;2024-01-30T13:47:44;15.30;;;3.73;;
10174;SDS011;18221;38.704;0.152;2024-01-30T13:50:12;13.07;;;3.27;;
10174;SDS011;18221;38.704;0.152;2024-01-30T13:52:40;12.10;;;3.10;;
10174;SDS011;18221;38.704;0.152;2024-01-30T13:55:08;12.57;;;3.50;;
10174;SDS011;18221;38.704;0.152;2024-01-30T13:57:38;12.43;;;3.30;;
10174;SDS011;18221;38.704;0.152;2024-01-30T14:00:06;11.87;;;2.90;;
10174;SDS011;18221;38.704;0.152;2024-01-30T14:02:35;10.33;;;3.17;;
10174;SDS011;18221;38.704;0.152;2024-01-30T14:05:04;12.97;;;3.33;;
10174;SDS011;18221;38.704;0.152;2024-01-30T14:07:33;9.13;;;2.77;;
10174;SDS011;18221;38.704;0.152;2024-01-30T14:10:05;9.77;;;2.90;;
10174;SDS011;18221;38.704;0.152;2024-01-30T14:12:34;10.13;;;3.20;;
10174;SDS011;18221;38.704;0.152;2024-01-30T14:15:06;10.20;;;3.43;;
10174;SDS011;18221;38.704;0.152;2024-01-30T14:17:36;15.00;;;3.10;;
10174;SDS011;18221;38.704;0.152;2024-01-30T14:20:04;8.53;;;3.10;;
10174;SDS011;18221;38.704;0.152;2024-01-30T14:22:34;12.43;;;3.00;;
10174;SDS011;18221;38.704;0.152;2024-01-30T14:25:02;14.40;;;3.60;;
10174;SDS011;18221;38.704;0.152;2024-01-30T14:27:30;15.67;;;3.93;;
10174;SDS011;18221;38.704;0.152;2024-01-30T14:30:00;12.30;;;3.30;;
10174;SDS011;18221;38.704;0.152;2024-01-30T14:32:29;17.23;;;3.17;;
10174;SDS011;18221;38.704;0.152;2024-01-30T14:34:58;8.57;;;2.70;;
10174;SDS011;18221;38.704;0.152;2024-01-30T14:37:26;10.20;;;3.53;;
10174;SDS011;18221;38.704;0.152;2024-01-30T14:39:55;15.17;;;3.20;;
10174;SDS011;18221;38.704;0.152;2024-01-30T14:42:23;13.07;;;3.40;;
10174;SDS011;18221;38.704;0.152;2024-01-30T14:44:52;13.97;;;3.97;;
10174;SDS011;18221;38.704;0.152;2024-01-30T14:47:21;12.57;;;2.97;;
10174;SDS011;18221;38.704;0.152;2024-01-30T14:49:49;12.83;;;2.77;;
10174;SDS011;18221;38.704;0.152;2024-01-30T14:52:18;11.03;;;2.80;;